createdAt,value
2023-06-02T00:00:25.003Z,99796.63
2023-06-02T00:02:55.286Z,99798.19
2023-06-02T00:05:26.512Z,99805.03
2023-06-02T00:07:59.880Z,99807.06
2023-06-02T00:10:29.682Z,99802.31
2023-06-02T00:12:59.437Z,99807.22
2023-06-02T00:15:30.672Z,99805.81
2023-06-02T00:18:00.441Z,99803.84
2023-06-02T00:20:30.226Z,99808.25
2023-06-02T00:23:03.491Z,99805.50
2023-06-02T00:25:34.256Z,99807.88
2023-06-02T00:28:04.025Z,99802.78
2023-06-02T00:30:34.128Z,99801.38
2023-06-02T00:33:04.389Z,99809.97
2023-06-02T00:35:34.444Z,99808.31
2023-06-02T00:38:06.838Z,99809.16
2023-06-02T00:40:36.778Z,99813.34
2023-06-02T00:43:06.736Z,99811.38
2023-06-02T00:45:36.530Z,99804.38
2023-06-02T00:48:06.804Z,99812.00
2023-06-02T00:50:36.846Z,99809.03
2023-06-02T00:53:09.318Z,99812.78
2023-06-02T00:55:39.130Z,99818.81
2023-06-02T00:58:12.514Z,99815.59
2023-06-02T01:00:42.527Z,99811.63
2023-06-02T01:03:15.611Z,99818.38
2023-06-02T01:05:47.438Z,99815.88
2023-06-02T01:08:20.719Z,99816.66
2023-06-02T01:10:50.958Z,99819.25
2023-06-02T01:13:20.713Z,99819.50
2023-06-02T01:15:50.489Z,99821.75
2023-06-02T01:18:26.517Z,99820.72
2023-06-02T01:20:58.715Z,99823.78
2023-06-02T01:23:35.472Z,99815.31
2023-06-02T01:26:11.018Z,99810.06
2023-06-02T01:28:42.032Z,99815.97
2023-06-02T01:31:19.033Z,99808.69
2023-06-02T01:33:54.007Z,99813.38
2023-06-02T01:36:26.664Z,99801.97
2023-06-02T01:38:57.899Z,99802.19
2023-06-02T01:41:31.913Z,99806.66
2023-06-02T01:44:03.678Z,99799.66
2023-06-02T01:46:33.794Z,99797.03
2023-06-02T01:49:03.633Z,99814.44
2023-06-02T01:51:33.362Z,99804.84
2023-06-02T01:54:03.239Z,99812.56
2023-06-02T01:56:35.553Z,99808.09
2023-06-02T01:59:07.006Z,99810.53
2023-06-02T02:01:37.900Z,99803.97
2023-06-02T02:04:08.196Z,99803.97
2023-06-02T02:06:38.404Z,99807.38
2023-06-02T02:09:08.706Z,99810.53
2023-06-02T02:11:41.038Z,99812.56
2023-06-02T02:14:10.996Z,99804.94
2023-06-02T02:16:45.693Z,99796.97
2023-06-02T02:19:17.552Z,99803.84
2023-06-02T02:21:47.621Z,99810.53
2023-06-02T02:24:19.030Z,99814.28
2023-06-02T02:26:51.303Z,99818.00
2023-06-02T02:29:21.343Z,99811.69
2023-06-02T02:31:51.322Z,99809.78
2023-06-02T02:34:21.171Z,99805.41
2023-06-02T02:36:53.303Z,99805.44
2023-06-02T02:39:23.498Z,99808.41
2023-06-02T02:41:56.167Z,99796.34
2023-06-02T02:44:27.127Z,99803.16
2023-06-02T02:46:59.702Z,99811.19
2023-06-02T02:49:30.400Z,99809.50
2023-06-02T02:52:00.900Z,99806.00
2023-06-02T02:54:30.651Z,99814.94
2023-06-02T02:57:03.213Z,99809.03
2023-06-02T02:59:33.057Z,99809.22
2023-06-02T03:02:02.748Z,99809.97
2023-06-02T03:04:33.229Z,99809.19
2023-06-02T03:07:03.836Z,99812.03
2023-06-02T03:09:33.697Z,99814.78
2023-06-02T03:12:07.765Z,99815.03
2023-06-02T03:14:37.532Z,99822.31
2023-06-02T03:17:08.047Z,99829.00
2023-06-02T03:19:39.560Z,99823.91
2023-06-02T03:22:09.900Z,99826.34
2023-06-02T03:24:42.293Z,99821.28
2023-06-02T03:27:15.079Z,99833.09
2023-06-02T03:29:49.390Z,99828.97
2023-06-02T03:32:23.946Z,99840.66
2023-06-02T03:34:53.966Z,99836.19
2023-06-02T03:37:24.256Z,99835.03
2023-06-02T03:39:54.127Z,99845.72
2023-06-02T03:42:27.675Z,99847.19
2023-06-02T03:44:57.977Z,99850.50
2023-06-02T03:47:27.720Z,99845.88
2023-06-02T03:49:57.542Z,99842.38
2023-06-02T03:52:28.128Z,99852.09
2023-06-02T03:54:58.127Z,99855.78
2023-06-02T03:57:31.436Z,99852.50
2023-06-02T04:00:01.209Z,99851.13
2023-06-02T04:02:31.250Z,99846.97
2023-06-02T04:05:01.881Z,99851.34
2023-06-02T04:07:31.729Z,99849.94
2023-06-02T04:10:01.572Z,99856.31
2023-06-02T04:12:33.906Z,99861.97
2023-06-02T04:15:05.205Z,99855.31
2023-06-02T04:17:35.686Z,99855.97
2023-06-02T04:20:05.854Z,99858.41
2023-06-02T04:22:38.315Z,99857.34
2023-06-02T04:25:09.655Z,99858.84
2023-06-02T04:27:42.053Z,99860.78
2023-06-02T04:30:12.884Z,99861.53
2023-06-02T04:32:43.593Z,99872.56
2023-06-02T04:35:14.424Z,99878.41
2023-06-02T04:37:45.510Z,99873.56
2023-06-02T04:40:17.172Z,99882.19
2023-06-02T04:42:50.369Z,99882.13
2023-06-02T04:45:21.918Z,99887.34
2023-06-02T04:47:52.996Z,99881.09
2023-06-02T04:50:22.866Z,99882.25
2023-06-02T04:52:52.631Z,99876.84
2023-06-02T04:55:23.010Z,99874.34
2023-06-02T04:57:57.909Z,99882.03
2023-06-02T05:00:28.844Z,99884.06
2023-06-02T05:02:59.579Z,99878.81
2023-06-02T05:05:32.104Z,99882.28
2023-06-02T05:08:02.357Z,99884.19
2023-06-02T05:10:32.328Z,99871.91
2023-06-02T05:13:04.874Z,99871.19
2023-06-02T05:15:36.143Z,99874.00
2023-06-02T05:18:07.439Z,99861.34
2023-06-02T05:20:37.369Z,99860.94
2023-06-02T05:23:07.248Z,99858.41
2023-06-02T05:25:38.055Z,99865.16
2023-06-02T05:28:10.660Z,99877.34
2023-06-02T05:30:40.575Z,99873.22
2023-06-02T05:33:10.601Z,99881.75
2023-06-02T05:35:41.522Z,99875.31
2023-06-02T05:38:12.090Z,99875.19
2023-06-02T05:40:42.011Z,99876.66
2023-06-02T05:43:14.682Z,99874.97
2023-06-02T05:45:44.464Z,99880.34
2023-06-02T05:48:14.752Z,99881.00
2023-06-02T05:50:45.802Z,99889.00
2023-06-02T05:53:16.009Z,99882.28
2023-06-02T05:55:46.820Z,99883.28
2023-06-02T05:58:22.442Z,99876.28
2023-06-02T06:00:52.342Z,99878.56
2023-06-02T06:03:22.188Z,99881.47
2023-06-02T06:05:52.591Z,99877.84
2023-06-02T06:08:22.415Z,99875.34
2023-06-02T06:10:52.207Z,99886.44
2023-06-02T06:13:24.918Z,99879.81
2023-06-02T06:15:55.549Z,99874.84
2023-06-02T06:18:25.588Z,99880.63
2023-06-02T06:20:55.462Z,99876.53
2023-06-02T06:23:26.662Z,99871.53
2023-06-02T06:25:56.667Z,99875.97
2023-06-02T06:28:29.219Z,99879.56
2023-06-02T06:31:01.715Z,99894.19
2023-06-02T06:33:31.831Z,99890.28
2023-06-02T06:36:02.216Z,99893.56
2023-06-02T06:38:32.145Z,99895.06
2023-06-02T06:41:01.951Z,99889.38
2023-06-02T06:43:34.500Z,99898.38
2023-06-02T06:46:08.602Z,99902.22
2023-06-02T06:48:38.492Z,99902.31
2023-06-02T06:51:08.538Z,99907.97
2023-06-02T06:53:38.302Z,99916.03
2023-06-02T06:56:08.891Z,99914.50
2023-06-02T06:58:41.403Z,99917.19
2023-06-02T07:01:11.537Z,99913.44
2023-06-02T07:03:44.326Z,99921.06
2023-06-02T07:06:15.375Z,99915.69
2023-06-02T07:08:45.141Z,99918.13
2023-06-02T07:11:15.351Z,99926.22
2023-06-02T07:13:47.684Z,99922.31
2023-06-02T07:16:17.453Z,99923.50
2023-06-02T07:18:47.242Z,99922.47
2023-06-02T07:21:17.068Z,99920.44
2023-06-02T07:23:46.810Z,99927.53
2023-06-02T07:26:16.627Z,99935.38
2023-06-02T07:28:48.964Z,99932.69
2023-06-02T07:31:18.923Z,99932.31
2023-06-02T07:33:48.702Z,99927.69
2023-06-02T07:36:18.548Z,99935.66
2023-06-02T07:38:48.474Z,99934.41
2023-06-02T07:41:18.561Z,99929.59
2023-06-02T07:43:51.342Z,99931.41
2023-06-02T07:46:21.124Z,99929.34
2023-06-02T07:48:51.209Z,99932.03
2023-06-02T07:51:20.963Z,99936.84
2023-06-02T07:53:50.722Z,99931.56
2023-06-02T07:56:20.548Z,99937.88
2023-06-02T07:58:52.897Z,99926.03
2023-06-02T08:01:23.012Z,99930.91
2023-06-02T08:03:53.143Z,99926.03
2023-06-02T08:06:23.140Z,99924.97
2023-06-02T08:08:53.174Z,99934.34
2023-06-02T08:11:24.137Z,99935.38
2023-06-02T08:13:56.496Z,99929.38
2023-06-02T08:16:32.024Z,99939.25
2023-06-02T08:19:06.094Z,99930.66
2023-06-02T08:21:36.115Z,99945.81
2023-06-02T08:24:06.134Z,99937.25
2023-06-02T08:26:40.918Z,99946.69
2023-06-02T08:29:13.649Z,99943.06
2023-06-02T08:31:44.272Z,99933.28
2023-06-02T08:34:14.636Z,99938.25
2023-06-02T08:36:44.490Z,99939.44
2023-06-02T08:39:14.318Z,99942.00
2023-06-02T08:41:44.106Z,99933.69
2023-06-02T08:44:18.092Z,99934.94
2023-06-02T08:46:50.574Z,99939.22
2023-06-02T08:49:22.557Z,99935.19
2023-06-02T08:51:59.674Z,99934.91
2023-06-02T08:54:29.705Z,99928.59
2023-06-02T08:57:01.439Z,99928.00
2023-06-02T08:59:34.081Z,99927.19
2023-06-02T09:02:04.360Z,99921.69
2023-06-02T09:04:37.184Z,99919.72
2023-06-02T09:07:22.078Z,99931.72
2023-06-02T09:09:54.738Z,99931.78
2023-06-02T09:12:26.043Z,99940.16
2023-06-02T09:15:14.937Z,99940.16
2023-06-02T09:17:44.751Z,99941.78
2023-06-02T09:20:15.970Z,99936.25
2023-06-02T09:22:58.294Z,99949.09
2023-06-02T09:25:29.451Z,99947.09
2023-06-02T09:28:01.799Z,99947.22
2023-06-02T09:30:34.111Z,99946.81
2023-06-02T09:33:05.423Z,99956.72
2023-06-02T09:35:36.992Z,99953.06
2023-06-02T09:38:09.216Z,99951.34
2023-06-02T09:40:39.285Z,99958.03
2023-06-02T09:43:10.609Z,99957.19
2023-06-02T09:46:06.675Z,99954.50
2023-06-02T09:48:36.882Z,99956.91
2023-06-02T09:51:25.142Z,99961.91
2023-06-02T09:53:57.248Z,99956.25
2023-06-02T09:56:29.423Z,99955.06
2023-06-02T09:58:59.352Z,99967.22
2023-06-02T10:01:32.071Z,99961.09
2023-06-02T10:04:02.397Z,99971.66
2023-06-02T10:06:48.630Z,99973.06
2023-06-02T10:09:44.098Z,99960.91
2023-06-02T10:12:25.215Z,99961.59
2023-06-02T10:15:08.664Z,99965.91
2023-06-02T10:17:51.118Z,99971.38
2023-06-02T10:20:32.098Z,99965.38
2023-06-02T10:23:17.181Z,99965.44
2023-06-02T10:26:03.182Z,99961.13
2023-06-02T10:28:34.543Z,99963.84
2023-06-02T10:31:10.132Z,99967.47
2023-06-02T10:33:54.590Z,99951.59
2023-06-02T10:36:25.925Z,99955.88
2023-06-02T10:38:57.171Z,99959.03
2023-06-02T10:42:05.369Z,99953.66
2023-06-02T10:44:35.098Z,99952.06
2023-06-02T10:47:41.026Z,99955.22
2023-06-02T10:50:15.992Z,99959.38
2023-06-02T10:53:11.753Z,99963.72
2023-06-02T10:55:42.822Z,99957.44
2023-06-02T10:58:14.388Z,99958.88
2023-06-02T11:00:51.725Z,99962.34
2023-06-02T11:03:43.092Z,99965.78
2023-06-02T11:06:26.558Z,99957.72
2023-06-02T11:08:56.345Z,99963.06
2023-06-02T11:11:57.286Z,99960.69
2023-06-02T11:14:28.041Z,99962.63
2023-06-02T11:17:28.026Z,99976.84
2023-06-02T11:19:58.883Z,99963.19
2023-06-02T11:22:31.684Z,99965.56
2023-06-02T11:25:03.342Z,99970.47
2023-06-02T11:27:41.536Z,99964.97
2023-06-02T11:30:16.835Z,99969.44
2023-06-02T11:32:49.597Z,99955.56
2023-06-02T11:35:24.753Z,99967.81
2023-06-02T11:38:09.547Z,99968.69
2023-06-02T11:40:40.372Z,99968.09
2023-06-02T11:43:10.123Z,99964.97
2023-06-02T11:45:40.307Z,99969.09
2023-06-02T11:48:12.661Z,99971.72
2023-06-02T11:50:42.829Z,99958.94
2023-06-02T11:53:18.864Z,99958.34
2023-06-02T11:55:48.964Z,99961.81
2023-06-02T11:58:24.518Z,99951.69
2023-06-02T12:00:55.902Z,99954.00
2023-06-02T12:03:27.034Z,99957.72
2023-06-02T12:05:59.365Z,99953.13
2023-06-02T12:08:31.762Z,99958.88
2023-06-02T12:11:01.996Z,99949.56
2023-06-02T12:13:34.029Z,99945.28
2023-06-02T12:16:23.074Z,99957.34
2023-06-02T12:18:52.857Z,99955.94
2023-06-02T12:21:27.684Z,99944.81
2023-06-02T12:24:02.954Z,99959.16
2023-06-02T12:26:42.710Z,99944.81
2023-06-02T12:29:13.076Z,99954.53
2023-06-02T12:31:42.960Z,99950.63
2023-06-02T12:34:12.776Z,99945.63
2023-06-02T12:36:42.533Z,99935.28
2023-06-02T12:39:14.862Z,99946.53
2023-06-02T12:41:44.659Z,99952.94
2023-06-02T12:44:14.374Z,99950.38
2023-06-02T12:46:44.732Z,99952.25
2023-06-02T12:49:15.042Z,99953.03
2023-06-02T12:51:44.825Z,99952.22
2023-06-02T12:54:17.240Z,99950.72
2023-06-02T12:56:47.185Z,99955.81
2023-06-02T12:59:17.093Z,99957.13
2023-06-02T13:01:48.546Z,99954.00
2023-06-02T13:04:19.799Z,99961.13
2023-06-02T13:06:49.785Z,99959.66
2023-06-02T13:09:22.079Z,99961.53
2023-06-02T13:11:53.358Z,99960.69
2023-06-02T13:14:23.823Z,99965.31
2023-06-02T13:16:53.665Z,99960.91
2023-06-02T13:19:23.787Z,99967.09
2023-06-02T13:21:53.603Z,99963.28
2023-06-02T13:24:26.062Z,99958.81
2023-06-02T13:26:55.892Z,99959.06
2023-06-02T13:29:26.106Z,99964.78
2023-06-02T13:31:55.874Z,99952.81
2023-06-02T13:34:25.620Z,99963.81
2023-06-02T13:36:55.757Z,99969.31
2023-06-02T13:39:28.079Z,99967.56
2023-06-02T13:42:00.168Z,99972.94
2023-06-02T13:44:29.915Z,99973.94
2023-06-02T13:46:59.631Z,99975.97
2023-06-02T13:49:29.353Z,99977.66
2023-06-02T13:51:59.166Z,99978.09
2023-06-02T13:54:31.497Z,99976.00
2023-06-02T13:57:03.250Z,99969.66
2023-06-02T13:59:34.575Z,99978.34
2023-06-02T14:02:05.086Z,99968.44
2023-06-02T14:04:34.906Z,99974.69
2023-06-02T14:07:04.748Z,99974.97
2023-06-02T14:09:37.606Z,99970.72
2023-06-02T14:12:08.196Z,99981.41
2023-06-02T14:14:37.912Z,99974.31
2023-06-02T14:17:08.085Z,99979.94
2023-06-02T14:19:38.356Z,99971.03
2023-06-02T14:22:08.312Z,99977.47
2023-06-02T14:24:40.609Z,99969.97
2023-06-02T14:27:10.566Z,99975.97
2023-06-02T14:29:41.035Z,99970.88
2023-06-02T14:32:11.947Z,99972.91
2023-06-02T14:34:42.691Z,99970.53
2023-06-02T14:37:13.677Z,99983.78
2023-06-02T14:39:46.029Z,99964.50
2023-06-02T14:42:15.758Z,99975.84
2023-06-02T14:44:45.628Z,99966.88
2023-06-02T14:47:15.397Z,99966.38
2023-06-02T14:49:45.194Z,99973.63
2023-06-02T14:52:14.976Z,99966.34
2023-06-02T14:54:47.347Z,99956.38
2023-06-02T14:57:17.253Z,99969.09
2023-06-02T14:59:47.189Z,99960.31
2023-06-02T15:02:17.033Z,99963.22
2023-06-02T15:05:05.387Z,99972.13
2023-06-02T15:07:53.749Z,99962.75
2023-06-02T15:10:26.590Z,99963.13
2023-06-02T15:12:56.474Z,99958.03
2023-06-02T15:15:26.168Z,99958.66
2023-06-02T15:17:56.477Z,99969.00
2023-06-02T15:20:26.276Z,99965.19
2023-06-02T15:22:55.991Z,99965.59
2023-06-02T15:25:28.303Z,99973.50
2023-06-02T15:27:58.393Z,99975.88
2023-06-02T15:30:30.185Z,99964.75
2023-06-02T15:33:00.442Z,99967.47
2023-06-02T15:35:31.033Z,99967.25
2023-06-02T15:38:00.784Z,99973.94
2023-06-02T15:40:33.403Z,99965.00
2023-06-02T15:43:03.100Z,99968.44
2023-06-02T15:45:32.807Z,99959.38
2023-06-02T15:48:02.783Z,99971.03
2023-06-02T15:50:32.684Z,99968.03
2023-06-02T15:53:02.545Z,99963.84
2023-06-02T15:55:34.824Z,99956.59
2023-06-02T15:58:04.555Z,99960.06
2023-06-02T16:00:34.255Z,99953.56
2023-06-02T16:03:05.232Z,99954.38
2023-06-02T16:05:36.830Z,99950.84
2023-06-02T16:08:06.602Z,99955.81
2023-06-02T16:10:38.874Z,99952.66
2023-06-02T16:13:08.809Z,99959.41
2023-06-02T16:15:38.570Z,99948.47
2023-06-02T16:18:08.824Z,99963.94
2023-06-02T16:20:38.623Z,99956.06
2023-06-02T16:23:08.881Z,99955.06
2023-06-02T16:25:41.338Z,99948.19
2023-06-02T16:28:11.207Z,99956.13
2023-06-02T16:30:40.929Z,99957.31
2023-06-02T16:33:11.012Z,99955.19
2023-06-02T16:35:41.224Z,99963.28
2023-06-02T16:38:11.620Z,99965.34
2023-06-02T16:40:43.977Z,99963.06
2023-06-02T16:43:14.843Z,99973.59
2023-06-02T16:45:44.781Z,99973.47
2023-06-02T16:48:14.753Z,99964.34
2023-06-02T16:50:44.904Z,99960.97
2023-06-02T16:53:14.689Z,99976.00
2023-06-02T16:55:47.030Z,99973.63
2023-06-02T16:58:16.750Z,99963.88
2023-06-02T17:00:46.922Z,99968.38
2023-06-02T17:03:16.712Z,99973.84
2023-06-02T17:05:47.692Z,99973.75
2023-06-02T17:08:17.575Z,99968.63
2023-06-02T17:10:49.894Z,99977.97
2023-06-02T17:13:19.686Z,99969.59
2023-06-02T17:15:49.420Z,99974.25
2023-06-02T17:18:19.354Z,99967.47
2023-06-02T17:20:51.450Z,99972.78
2023-06-02T17:23:22.451Z,99964.47
2023-06-02T17:25:55.470Z,99964.47
2023-06-02T17:28:25.256Z,99955.13
2023-06-02T17:30:55.598Z,99958.03
2023-06-02T17:33:25.330Z,99959.09
2023-06-02T17:35:55.021Z,99961.09
2023-06-02T17:38:24.719Z,99963.44
2023-06-02T17:40:57.102Z,99965.75
2023-06-02T17:43:28.196Z,99969.22
2023-06-02T17:45:59.767Z,99968.75
2023-06-02T17:48:29.702Z,99968.59
2023-06-02T17:50:59.403Z,99967.59
2023-06-02T17:53:29.115Z,99975.13
2023-06-02T17:56:01.570Z,99970.09
2023-06-02T17:58:31.881Z,99969.31
2023-06-02T18:01:01.850Z,99975.13
2023-06-02T18:03:31.836Z,99971.00
2023-06-02T18:06:01.654Z,99972.19
2023-06-02T18:08:31.634Z,99971.13
2023-06-02T18:11:05.323Z,99965.84
2023-06-02T18:13:36.062Z,99965.44
2023-06-02T18:16:06.336Z,99965.88
2023-06-02T18:18:36.288Z,99964.53
2023-06-02T18:21:06.616Z,99974.66
2023-06-02T18:23:37.145Z,99980.78
2023-06-02T18:26:09.588Z,99980.19
2023-06-02T18:28:39.442Z,99993.03
2023-06-02T18:31:09.344Z,99983.78
2023-06-02T18:33:39.174Z,99986.19
2023-06-02T18:36:09.132Z,99989.50
2023-06-02T18:38:39.071Z,99995.84
2023-06-02T18:41:13.889Z,99992.31
2023-06-02T18:43:43.615Z,99988.97
2023-06-02T18:46:13.951Z,99991.97
2023-06-02T18:48:43.827Z,99985.19
2023-06-02T18:51:13.626Z,99995.81
2023-06-02T18:53:43.548Z,99993.50
2023-06-02T18:56:16.363Z,99986.63
2023-06-02T18:58:46.110Z,99995.38
2023-06-02T19:01:18.625Z,99995.81
2023-06-02T19:03:48.648Z,99995.53
2023-06-02T19:06:18.757Z,99997.34
2023-06-02T19:08:48.572Z,100004.94
2023-06-02T19:11:22.680Z,100003.06
2023-06-02T19:13:52.581Z,100005.25
2023-06-02T19:16:22.348Z,100010.25
2023-06-02T19:18:52.084Z,100008.66
2023-06-02T19:21:21.968Z,100008.94
2023-06-02T19:23:53.666Z,100015.75
2023-06-02T19:26:27.009Z,100024.91
2023-06-02T19:28:56.824Z,100022.50
2023-06-02T19:31:27.013Z,100032.41
2023-06-02T19:33:56.796Z,100034.88
2023-06-02T19:36:26.523Z,100043.97
2023-06-02T19:38:56.281Z,100034.06
2023-06-02T19:41:28.772Z,100042.88
2023-06-02T19:43:58.705Z,100052.81
2023-06-02T19:46:28.736Z,100049.50
2023-06-02T19:48:58.625Z,100057.09
2023-06-02T19:51:28.441Z,100063.25
2023-06-02T19:53:58.276Z,100064.00
2023-06-02T19:56:30.620Z,100065.34
2023-06-02T19:59:00.330Z,100071.91
2023-06-02T20:01:30.254Z,100075.75
2023-06-02T20:04:00.490Z,100080.19
2023-06-02T20:06:30.288Z,100075.13
2023-06-02T20:08:59.998Z,100080.97
2023-06-02T20:11:32.365Z,100080.63
2023-06-02T20:14:02.643Z,100089.88
2023-06-02T20:16:32.576Z,100084.56
2023-06-02T20:19:02.380Z,100092.81
2023-06-02T20:21:32.382Z,100091.22
2023-06-02T20:24:02.248Z,100088.19
2023-06-02T20:26:34.843Z,100095.88
2023-06-02T20:29:04.591Z,100097.94
2023-06-02T20:31:34.394Z,100092.16
2023-06-02T20:34:04.242Z,100099.06
2023-06-02T20:36:33.956Z,100100.50
2023-06-02T20:39:03.878Z,100107.34
2023-06-02T20:41:37.637Z,100106.19
2023-06-02T20:44:07.367Z,100108.34
2023-06-02T20:46:37.167Z,100106.13
2023-06-02T20:49:07.328Z,100108.38
2023-06-02T20:51:37.338Z,100117.00
2023-06-02T20:54:07.712Z,100124.41
2023-06-02T20:56:40.180Z,100125.69
2023-06-02T20:59:10.025Z,100126.06
2023-06-02T21:01:39.793Z,100118.31
2023-06-02T21:04:09.530Z,100125.56
2023-06-02T21:06:39.297Z,100125.94
2023-06-02T21:09:10.313Z,100126.97
2023-06-02T21:11:42.667Z,100127.69
2023-06-02T21:14:12.400Z,100131.38
2023-06-02T21:16:42.171Z,100136.31
2023-06-02T21:19:11.901Z,100138.94
2023-06-02T21:21:41.635Z,100138.84
2023-06-02T21:24:11.367Z,100143.09
2023-06-02T21:26:43.681Z,100138.44
2023-06-02T21:29:13.520Z,100141.31
2023-06-02T21:31:43.452Z,100134.41
2023-06-02T21:34:13.224Z,100142.75
2023-06-02T21:36:42.942Z,100149.44
2023-06-02T21:39:13.264Z,100147.31
2023-06-02T21:41:46.977Z,100143.22
2023-06-02T21:44:16.750Z,100147.63
2023-06-02T21:46:46.637Z,100156.00
2023-06-02T21:49:16.412Z,100153.13
2023-06-02T21:51:50.383Z,100151.59
2023-06-02T21:54:20.109Z,100154.50
2023-06-02T21:56:52.456Z,100155.19
2023-06-02T21:59:22.217Z,100156.00
2023-06-02T22:01:51.995Z,100167.56
2023-06-02T22:04:21.761Z,100162.53
2023-06-02T22:06:51.503Z,100171.09
2023-06-02T22:09:21.564Z,100169.72
2023-06-02T22:11:53.947Z,100179.81
2023-06-02T22:14:23.756Z,100173.13
2023-06-02T22:16:53.870Z,100171.66
2023-06-02T22:19:23.641Z,100176.69
2023-06-02T22:21:56.034Z,100175.63
2023-06-02T22:24:28.507Z,100178.41
2023-06-02T22:27:01.900Z,100177.94
2023-06-02T22:29:31.635Z,100186.09
2023-06-02T22:32:01.460Z,100186.78
2023-06-02T22:34:31.282Z,100179.28
2023-06-02T22:37:01.299Z,100178.06
2023-06-02T22:39:31.178Z,100178.63
2023-06-02T22:42:03.491Z,100184.94
2023-06-02T22:44:33.283Z,100182.25
2023-06-02T22:47:03.705Z,100185.78
2023-06-02T22:49:33.461Z,100186.69
2023-06-02T22:52:03.376Z,100193.50
2023-06-02T22:54:33.100Z,100195.44
2023-06-02T22:57:05.543Z,100191.16
2023-06-02T22:59:35.317Z,100202.81
2023-06-02T23:02:05.523Z,100204.47
2023-06-02T23:04:35.303Z,100206.84
2023-06-02T23:07:05.225Z,100208.00
2023-06-02T23:09:34.951Z,100220.47
2023-06-02T23:12:08.191Z,100211.69
2023-06-02T23:14:37.906Z,100214.84
2023-06-02T23:17:08.468Z,100227.75
2023-06-02T23:19:38.244Z,100226.41
2023-06-02T23:22:08.407Z,100226.06
2023-06-02T23:24:38.142Z,100231.97
2023-06-02T23:27:11.125Z,100234.94
2023-06-02T23:29:40.890Z,100226.34
2023-06-02T23:32:11.296Z,100222.22
2023-06-02T23:34:41.067Z,100216.72
2023-06-02T23:37:10.839Z,100224.53
2023-06-02T23:39:40.618Z,100228.16
2023-06-02T23:42:13.072Z,100222.72
2023-06-02T23:44:42.982Z,100222.97
2023-06-02T23:47:17.796Z,100221.31
2023-06-02T23:49:47.613Z,100229.97
2023-06-02T23:52:17.700Z,100224.41
2023-06-02T23:54:47.538Z,100217.97
2023-06-02T23:57:20.168Z,100222.91
2023-06-02T23:59:49.877Z,100222.22
